Carlsbad, NM

5:00 PM MDT on October 20, 2014 (GMT -0600)
KNMCARLS3 | Change Station
CLOSE
Current Station
Personal Weather Station
Location: Carlsbad, NM
Elevation: 3158 ft
Nearby Weather Stations

Elev 3158 ft 32.43 °N, 104.25 °W | Updated 12 seconds ago

Partly Cloudy
Partly Cloudy
65.0 °F
Feels Like 65.0 °F
N
4.0
Wind Variable Wind from ENE
Gusts 20.0 mph

Today
High -- | Low -- °F
--% Chance of Precip.
Yesterday
High -- | Low -- °F
Precip. -- in
7:04 AM 6:18 PM
Waning Crescent, 8% visible
Pressure 30.06 in
Visibility 0.8 miles
Clouds Few 1500 ft
Mostly Cloudy 2600 ft
Mostly Cloudy 4000 ft
Dew Point 56 °F
Humidity 73%
Rainfall 0.00 in
Snow Depth Not available.
UV 1 out of 12
Pollen 4.30 out of 12
Air Quality Not available.
Flu Activity Not available.
SPECI KCNM 202257Z AUTO 14020G28KT 3/4SM VCTS +RA BR FEW015 BKN026 BKN040 17/14 A3006 RMK AO2 LTG DSNT NE-SE P0015 T01670144

More Conditions Fewer Conditions

Pressure 30.06 in
Visibility 0.8 miles
Clouds Few 1500 ft
Mostly Cloudy 2600 ft
Mostly Cloudy 4000 ft
Dew Point 56 °F
Humidity 73%
Rainfall 0.00 in
Snow Depth Not available.
UV 1 out of 12
Pollen 4.30 out of 12
Air Quality Not available.
Flu Activity Not available.
SPECI KCNM 202257Z AUTO 14020G28KT 3/4SM VCTS +RA BR FEW015 BKN026 BKN040 17/14 A3006 RMK AO2 LTG DSNT NE-SE P0015 T01670144

More Conditions Fewer Conditions

10-Day Weather Forecast

Almanac

Astronomy

Oct. 20, 2014 Rise Set
Actual Time 7:04 AM MDT 6:18 PM MDT
Civil Twilight 6:39 AM MDT 6:43 PM MDT
Nautical Twilight 6:11 AM MDT 7:11 PM MDT
Astronomical Twilight 5:42 AM MDT 7:40 PM MDT
Moon 4:05 AM MDT 4:33 PM MDT
Length of Visible Light 12h 03m
Length of Day
11h 13m
Tomorrow will be 1m 52s shorter.
Waning Crescent, 8% of the Moon is Illuminated
Today
Waning Crescent
Oct 23
New
Oct 30
First Quarter
Nov 6
Full
Nov 14
Last Quarter

Today's Extremes

State Highs State Lows

Community

WunderPhotos

Upload Photos

1,763,544 photos uploaded!

WunderBlogs® & News

By Dr. Jeff Masters
Director of Meteorology, Weather Underground
By Kari Strenfel
Meteorologist, Weather Underground
By Christopher C. Burt
Weather Historian, Weather Underground
October 20, 2014
October 20, 2014
October 20, 2014

Nearby

Snow Depth

Station Depth Elevation
Wesner Springs 3 in 11120 ft
Santa Fe 0 in 11445 ft
Silver Creek Divide 1 in 9000 ft
Gallegos Peak 0 in 9800 ft
Frisco Divide 0 in 8000 ft

Earthquake Activity

City Distance Mag. Time & Date
No recent earthquake activity has been reported nearby.
Minimum magnitude displayed is 2.5.

Coastal Water Temperatures

Place Temperature
No Stations Reporting

Nearby Weather Stations